»·PEaware :: N524ML KTVY-KRIF

N524ML :: KTVY-KRIF

FLIGHT INFORMATION

Flight Status: Arrived
Operator: Privately registered:
United States
More flights under this callsign
Pilot: Max L. (14194)
Aircraft: CESSNA 172 SKYHAWK
(C172)
More flights by this aircraft type
Origin: KTVY Bolinder-Tooele Valley
United States
Destination: KRIF Richfield Mun
United States
More flights between these airports :: More routes between these airports
Route:
File this flight plan on PilotEdge
Remarks:
Altitude:
(Current/Filed)
9,500ft
Speed:
(Current/Filed)
120kts
Departed: 17-Jun-18 01:23 PM
Arrived: 17-Jun-18 02:23 PM
Distance/Time
Traveled:
114nm/1:00
Distance/Time
To Go:
Arrived

Flight Plot

Page will automatically refresh every two minutes.

Flight plan parsing failed; only flown route is shown


Map Options




Map Legend


Flown Route
Filed Route
Departure Airport
Arrival Airport
Navaid (VOR, NDB)
Fix

Horizontal Profiles

Position Reports

Time Latitude Longitude Heading Altitude Ground
Speed
17-Jun-18 13:20 40.614227 -112.349443 306 4297ft 0kts
17-Jun-18 13:21 40.620888 -112.349343 305 4278ft 6kts
17-Jun-18 13:22 40.620897 -112.349601 265 4278ft 10kts
17-Jun-18 13:23 40.613285 -112.350786 178 4368ft 81kts
17-Jun-18 13:24 40.592445 -112.350136 178 5295ft 72kts
17-Jun-18 13:25 40.572258 -112.349089 177 6114ft 73kts
17-Jun-18 13:26 40.552777 -112.342470 151 6861ft 75kts
17-Jun-18 13:27 40.534150 -112.334081 165 7631ft 66kts
17-Jun-18 13:28 40.514577 -112.328804 169 8199ft 80kts
17-Jun-18 13:29 40.491498 -112.323548 170 8709ft 87kts
17-Jun-18 13:30 40.467536 -112.318244 170 9209ft 87kts
17-Jun-18 13:31 40.442462 -112.312717 170 9507ft 105kts
17-Jun-18 13:32 40.411183 -112.305872 170 9501ft 119kts
17-Jun-18 13:33 40.377030 -112.298377 170 9499ft 125kts
17-Jun-18 13:34 40.342893 -112.290879 170 9499ft 124kts
17-Jun-18 13:35 40.308773 -112.283388 170 9500ft 124kts
17-Jun-18 13:36 40.274573 -112.275887 170 9500ft 124kts
17-Jun-18 13:37 40.240420 -112.268403 170 9500ft 124kts
17-Jun-18 13:38 40.206180 -112.260908 170 9499ft 124kts
17-Jun-18 13:39 40.172102 -112.253457 170 9500ft 124kts
17-Jun-18 13:40 40.137879 -112.245907 170 9499ft 124kts
17-Jun-18 13:41 40.103753 -112.237955 170 9500ft 124kts
17-Jun-18 13:42 40.069705 -112.230306 170 9500ft 124kts
17-Jun-18 13:43 40.035476 -112.222770 170 9500ft 124kts
17-Jun-18 13:44 40.001309 -112.215292 170 9500ft 124kts
17-Jun-18 13:45 39.967213 -112.207848 170 9500ft 124kts
17-Jun-18 13:46 39.933018 -112.200394 170 9499ft 124kts
17-Jun-18 13:47 39.898903 -112.192965 170 9499ft 124kts
17-Jun-18 13:48 39.865470 -112.185691 170 9499ft 124kts
17-Jun-18 13:49 39.831312 -112.178268 170 9500ft 124kts
17-Jun-18 13:50 39.797093 -112.170839 170 9500ft 124kts
17-Jun-18 13:51 39.762941 -112.163430 170 9500ft 124kts
17-Jun-18 13:52 39.728732 -112.156018 170 9499ft 124kts
17-Jun-18 13:53 39.694638 -112.148638 170 9499ft 124kts
17-Jun-18 13:54 39.660696 -112.141298 170 9500ft 124kts
17-Jun-18 13:55 39.626525 -112.133916 170 9500ft 124kts
17-Jun-18 13:56 39.592368 -112.126545 170 9500ft 124kts
17-Jun-18 13:57 39.558147 -112.119167 170 9499ft 124kts
17-Jun-18 13:58 39.523987 -112.111810 170 9500ft 124kts
17-Jun-18 13:59 39.489865 -112.104466 170 9500ft 125kts
17-Jun-18 14:00 39.455348 -112.097047 170 9499ft 124kts
17-Jun-18 14:01 39.421399 -112.089981 175 9497ft 122kts
17-Jun-18 14:02 39.387434 -112.084681 171 9500ft 124kts
17-Jun-18 14:03 39.353417 -112.077926 170 9500ft 124kts
17-Jun-18 14:04 39.319406 -112.070785 170 9500ft 124kts
17-Jun-18 14:05 39.285434 -112.063554 170 9500ft 124kts
17-Jun-18 14:06 39.251415 -112.056293 170 9500ft 124kts
17-Jun-18 14:07 39.217452 -112.049075 170 9500ft 124kts
17-Jun-18 14:08 39.183358 -112.041938 170 9500ft 124kts
17-Jun-18 14:09 39.149341 -112.034733 170 9500ft 124kts
17-Jun-18 14:10 39.115427 -112.027543 170 9499ft 124kts
17-Jun-18 14:11 39.081363 -112.020329 170 9500ft 124kts
17-Jun-18 14:12 39.047390 -112.013139 170 9500ft 124kts
17-Jun-18 14:13 39.013365 -112.005947 170 9499ft 124kts
17-Jun-18 14:14 38.979345 -111.998762 170 9499ft 124kts
17-Jun-18 14:15 38.945424 -111.991605 170 9500ft 124kts
17-Jun-18 14:16 38.911629 -111.985916 187 9578ft 114kts
17-Jun-18 14:17 38.882166 -112.001520 207 9457ft 122kts
17-Jun-18 14:18 38.852390 -112.023071 212 9312ft 119kts
17-Jun-18 14:19 38.823479 -112.045607 210 8400ft 132kts
17-Jun-18 14:20 38.793658 -112.064233 205 7239ft 100kts
17-Jun-18 14:21 38.770109 -112.078789 206 6515ft 95kts
17-Jun-18 14:22 38.747921 -112.090466 207 5584ft 92kts
17-Jun-18 14:23 38.734463 -112.100121 206 5287ft 40kts
17-Jun-18 14:24 38.728347 -112.102959 25 5305ft 14kts
17-Jun-18 14:25 38.728838 -112.102444 32 5303ft 0kts

Navigation Log

Ident Type
Flight plan parsing failed, navigation log unavailable